sensor_id;sensor_type;location;lat;lon;timestamp;pressure;altitude;pressure_sealevel;temperature;humidity
56374;BME280;58212;47.034;7.376;2024-01-06T00:02:01;94194.59;;;4.30;92.88
56374;BME280;58212;47.034;7.376;2024-01-06T00:04:29;94198.03;;;4.30;93.02
56374;BME280;58212;47.034;7.376;2024-01-06T00:06:56;94197.81;;;4.32;92.83
56374;BME280;58212;47.034;7.376;2024-01-06T00:09:23;94204.84;;;4.31;92.84
56374;BME280;58212;47.034;7.376;2024-01-06T00:11:49;94209.09;;;4.32;92.76
56374;BME280;58212;47.034;7.376;2024-01-06T00:14:16;94208.28;;;4.32;92.75
56374;BME280;58212;47.034;7.376;2024-01-06T00:16:43;94214.53;;;4.31;92.51
56374;BME280;58212;47.034;7.376;2024-01-06T00:19:10;94218.97;;;4.30;92.64
56374;BME280;58212;47.034;7.376;2024-01-06T00:21:38;94227.84;;;4.29;92.78
56374;BME280;58212;47.034;7.376;2024-01-06T00:24:05;94228.44;;;4.31;93.00
56374;BME280;58212;47.034;7.376;2024-01-06T00:26:32;94225.00;;;4.31;92.79
56374;BME280;58212;47.034;7.376;2024-01-06T00:28:59;94231.50;;;4.28;92.65
56374;BME280;58212;47.034;7.376;2024-01-06T00:31:25;94227.84;;;4.29;92.67
56374;BME280;58212;47.034;7.376;2024-01-06T00:33:52;94228.28;;;4.26;92.62
56374;BME280;58212;47.034;7.376;2024-01-06T00:36:19;94229.44;;;4.30;92.43
56374;BME280;58212;47.034;7.376;2024-01-06T00:38:47;94228.63;;;4.30;92.80
56374;BME280;58212;47.034;7.376;2024-01-06T00:41:14;94234.69;;;4.30;92.44
56374;BME280;58212;47.034;7.376;2024-01-06T00:43:41;94239.78;;;4.25;92.44
56374;BME280;58212;47.034;7.376;2024-01-06T00:46:08;94236.13;;;4.26;92.51
56374;BME280;58212;47.034;7.376;2024-01-06T00:48:34;94235.56;;;4.24;92.33
56374;BME280;58212;47.034;7.376;2024-01-06T00:51:01;94235.13;;;4.27;92.30
56374;BME280;58212;47.034;7.376;2024-01-06T00:53:28;94241.59;;;4.25;92.34
56374;BME280;58212;47.034;7.376;2024-01-06T00:55:56;94243.44;;;4.24;92.37
56374;BME280;58212;47.034;7.376;2024-01-06T00:58:23;94240.81;;;4.24;92.40
56374;BME280;58212;47.034;7.376;2024-01-06T01:00:50;94242.84;;;4.22;92.57
56374;BME280;58212;47.034;7.376;2024-01-06T01:03:16;94244.28;;;4.18;92.37
56374;BME280;58212;47.034;7.376;2024-01-06T01:05:43;94244.88;;;4.20;92.18
56374;BME280;58212;47.034;7.376;2024-01-06T01:08:10;94251.72;;;4.21;92.49
56374;BME280;58212;47.034;7.376;2024-01-06T01:10:37;94251.38;;;4.18;92.66
56374;BME280;58212;47.034;7.376;2024-01-06T01:13:05;94255.66;;;4.12;92.52
56374;BME280;58212;47.034;7.376;2024-01-06T01:15:32;94258.50;;;4.11;92.87
56374;BME280;58212;47.034;7.376;2024-01-06T01:17:58;94262.69;;;4.12;92.67
56374;BME280;58212;47.034;7.376;2024-01-06T01:20:25;94265.22;;;4.18;92.74
56374;BME280;58212;47.034;7.376;2024-01-06T01:22:52;94272.31;;;4.18;92.64
56374;BME280;58212;47.034;7.376;2024-01-06T01:25:19;94271.50;;;4.17;92.73
56374;BME280;58212;47.034;7.376;2024-01-06T01:27:46;94273.75;;;4.14;92.49
56374;BME280;58212;47.034;7.376;2024-01-06T01:30:14;94269.53;;;4.13;92.52
56374;BME280;58212;47.034;7.376;2024-01-06T01:32:41;94271.59;;;4.11;92.07
56374;BME280;58212;47.034;7.376;2024-01-06T01:35:08;94276.97;;;3.98;92.18
56374;BME280;58212;47.034;7.376;2024-01-06T01:37:35;94287.22;;;3.99;92.73
56374;BME280;58212;47.034;7.376;2024-01-06T01:40:03;94291.06;;;3.97;93.46
56374;BME280;58212;47.034;7.376;2024-01-06T01:42:30;94290.41;;;4.01;93.78
56374;BME280;58212;47.034;7.376;2024-01-06T01:44:57;94299.59;;;3.92;94.21
56374;BME280;58212;47.034;7.376;2024-01-06T01:47:25;94300.78;;;3.89;94.07
56374;BME280;58212;47.034;7.376;2024-01-06T01:49:54;94304.50;;;3.82;94.10
56374;BME280;58212;47.034;7.376;2024-01-06T01:52:21;94318.31;;;3.89;94.69
56374;BME280;58212;47.034;7.376;2024-01-06T01:54:48;94309.72;;;3.82;94.65
56374;BME280;58212;47.034;7.376;2024-01-06T01:57:15;94311.50;;;3.88;94.62
56374;BME280;58212;47.034;7.376;2024-01-06T01:59:42;94311.50;;;3.88;94.51
56374;BME280;58212;47.034;7.376;2024-01-06T02:02:10;94308.66;;;3.89;93.76
56374;BME280;58212;47.034;7.376;2024-01-06T02:04:38;94304.44;;;3.88;94.05
56374;BME280;58212;47.034;7.376;2024-01-06T02:07:05;94308.34;;;3.79;93.61
56374;BME280;58212;47.034;7.376;2024-01-06T02:09:32;94313.94;;;3.83;93.23
56374;BME280;58212;47.034;7.376;2024-01-06T02:11:59;94309.00;;;3.75;93.46
56374;BME280;58212;47.034;7.376;2024-01-06T02:14:26;94308.06;;;3.69;93.54
56374;BME280;58212;47.034;7.376;2024-01-06T02:16:52;94305.66;;;3.68;93.47
56374;BME280;58212;47.034;7.376;2024-01-06T02:19:19;94302.53;;;3.59;94.04
56374;BME280;58212;47.034;7.376;2024-01-06T02:21:51;94299.69;;;3.79;94.14
56374;BME280;58212;47.034;7.376;2024-01-06T02:24:18;94306.09;;;3.83;93.66
56374;BME280;58212;47.034;7.376;2024-01-06T02:26:45;94304.66;;;3.87;93.34
56374;BME280;58212;47.034;7.376;2024-01-06T02:29:12;94301.84;;;3.88;92.53
56374;BME280;58212;47.034;7.376;2024-01-06T02:31:39;94308.28;;;3.86;92.50
56374;BME280;58212;47.034;7.376;2024-01-06T02:34:05;94310.09;;;3.85;92.87
56374;BME280;58212;47.034;7.376;2024-01-06T02:36:32;94315.94;;;3.87;92.67
56374;BME280;58212;47.034;7.376;2024-01-06T02:39:00;94318.19;;;3.84;92.56
56374;BME280;58212;47.034;7.376;2024-01-06T02:41:27;94311.94;;;3.85;92.19
56374;BME280;58212;47.034;7.376;2024-01-06T02:43:54;94315.75;;;3.82;92.65
56374;BME280;58212;47.034;7.376;2024-01-06T02:46:21;94317.75;;;3.87;92.51
56374;BME280;58212;47.034;7.376;2024-01-06T02:48:48;94317.94;;;3.85;92.26
56374;BME280;58212;47.034;7.376;2024-01-06T02:51:15;94313.44;;;3.74;92.33
56374;BME280;58212;47.034;7.376;2024-01-06T02:53:41;94322.06;;;3.75;92.78
56374;BME280;58212;47.034;7.376;2024-01-06T02:56:11;94324.31;;;3.71;92.31
56374;BME280;58212;47.034;7.376;2024-01-06T02:58:38;94321.88;;;3.76;92.41
56374;BME280;58212;47.034;7.376;2024-01-06T03:01:04;94320.50;;;3.74;92.77
56374;BME280;58212;47.034;7.376;2024-01-06T03:03:31;94329.34;;;3.73;92.78
56374;BME280;58212;47.034;7.376;2024-01-06T03:05:58;94331.97;;;3.73;92.78
56374;BME280;58212;47.034;7.376;2024-01-06T03:08:25;94331.53;;;3.76;92.82
56374;BME280;58212;47.034;7.376;2024-01-06T03:10:52;94332.53;;;3.75;92.85
56374;BME280;58212;47.034;7.376;2024-01-06T03:13:20;94327.09;;;3.76;92.60
56374;BME280;58212;47.034;7.376;2024-01-06T03:15:47;94331.97;;;3.73;92.56
56374;BME280;58212;47.034;7.376;2024-01-06T03:18:14;94328.47;;;3.79;92.40
56374;BME280;58212;47.034;7.376;2024-01-06T03:20:40;94334.34;;;3.74;92.52
56374;BME280;58212;47.034;7.376;2024-01-06T03:23:07;94326.38;;;3.69;92.43
56374;BME280;58212;47.034;7.376;2024-01-06T03:25:34;94323.03;;;3.62;92.88
56374;BME280;58212;47.034;7.376;2024-01-06T03:28:01;94327.22;;;3.63;93.03
56374;BME280;58212;47.034;7.376;2024-01-06T03:30:29;94327.28;;;3.57;93.29
56374;BME280;58212;47.034;7.376;2024-01-06T03:32:55;94330.63;;;3.64;92.89
56374;BME280;58212;47.034;7.376;2024-01-06T03:35:22;94328.69;;;3.59;93.40
56374;BME280;58212;47.034;7.376;2024-01-06T03:37:49;94332.13;;;3.53;93.04
56374;BME280;58212;47.034;7.376;2024-01-06T03:40:16;94343.88;;;3.69;92.80
56374;BME280;58212;47.034;7.376;2024-01-06T03:42:42;94340.47;;;3.68;92.58
56374;BME280;58212;47.034;7.376;2024-01-06T03:45:09;94336.56;;;3.53;92.94
56374;BME280;58212;47.034;7.376;2024-01-06T03:47:37;94337.53;;;3.58;92.74
56374;BME280;58212;47.034;7.376;2024-01-06T03:50:05;94337.28;;;3.66;92.99
56374;BME280;58212;47.034;7.376;2024-01-06T03:52:32;94337.09;;;3.61;92.55
56374;BME280;58212;47.034;7.376;2024-01-06T03:54:58;94336.91;;;3.63;92.40
56374;BME280;58212;47.034;7.376;2024-01-06T03:57:25;94336.91;;;3.63;92.31
56374;BME280;58212;47.034;7.376;2024-01-06T03:59:52;94337.03;;;3.68;92.52
56374;BME280;58212;47.034;7.376;2024-01-06T04:02:19;94342.50;;;3.66;92.44
56374;BME280;58212;47.034;7.376;2024-01-06T04:04:47;94338.91;;;3.61;92.02
56374;BME280;58212;47.034;7.376;2024-01-06T04:07:14;94344.50;;;3.64;92.41
56374;BME280;58212;47.034;7.376;2024-01-06T04:09:42;94344.94;;;3.61;91.88
56374;BME280;58212;47.034;7.376;2024-01-06T04:12:09;94350.56;;;3.65;91.72
56374;BME280;58212;47.034;7.376;2024-01-06T04:14:35;94346.13;;;3.65;92.03
56374;BME280;58212;47.034;7.376;2024-01-06T04:17:02;94351.34;;;3.65;91.39
56374;BME280;58212;47.034;7.376;2024-01-06T04:19:29;94346.03;;;3.54;91.16
56374;BME280;58212;47.034;7.376;2024-01-06T04:21:57;94353.88;;;3.54;91.84
56374;BME280;58212;47.034;7.376;2024-01-06T04:24:24;94353.44;;;3.57;91.68
56374;BME280;58212;47.034;7.376;2024-01-06T04:26:51;94344.56;;;3.58;91.86
56374;BME280;58212;47.034;7.376;2024-01-06T04:29:17;94348.88;;;3.52;91.75
56374;BME280;58212;47.034;7.376;2024-01-06T04:31:44;94357.91;;;3.50;91.90
56374;BME280;58212;47.034;7.376;2024-01-06T04:34:11;94349.94;;;3.44;91.98
56374;BME280;58212;47.034;7.376;2024-01-06T04:36:37;94345.84;;;3.49;91.74
56374;BME280;58212;47.034;7.376;2024-01-06T04:39:06;94350.88;;;3.50;91.89
56374;BME280;58212;47.034;7.376;2024-01-06T04:41:33;94353.06;;;3.53;91.60
56374;BME280;58212;47.034;7.376;2024-01-06T04:44:01;94359.53;;;3.51;91.54
56374;BME280;58212;47.034;7.376;2024-01-06T04:46:28;94360.09;;;3.53;91.35
56374;BME280;58212;47.034;7.376;2024-01-06T04:48:56;94359.97;;;3.48;91.75
56374;BME280;58212;47.034;7.376;2024-01-06T04:51:22;94356.97;;;3.44;91.57
56374;BME280;58212;47.034;7.376;2024-01-06T04:53:49;94359.41;;;3.39;91.83
56374;BME280;58212;47.034;7.376;2024-01-06T04:56:17;94362.78;;;3.46;92.06
56374;BME280;58212;47.034;7.376;2024-01-06T04:58:44;94358.94;;;3.49;92.06
56374;BME280;58212;47.034;7.376;2024-01-06T05:01:11;94360.97;;;3.47;92.07
56374;BME280;58212;47.034;7.376;2024-01-06T05:03:38;94362.56;;;3.48;91.57
56374;BME280;58212;47.034;7.376;2024-01-06T05:06:05;94371.06;;;3.43;91.95
56374;BME280;58212;47.034;7.376;2024-01-06T05:08:31;94359.41;;;3.39;91.78
56374;BME280;58212;47.034;7.376;2024-01-06T05:10:59;94361.59;;;3.42;91.52
56374;BME280;58212;47.034;7.376;2024-01-06T05:13:27;94368.69;;;3.35;91.66
56374;BME280;58212;47.034;7.376;2024-01-06T05:15:54;94373.91;;;3.35;91.66
56374;BME280;58212;47.034;7.376;2024-01-06T05:18:20;94367.31;;;3.32;91.51
56374;BME280;58212;47.034;7.376;2024-01-06T05:20:47;94361.28;;;3.32;91.90
56374;BME280;58212;47.034;7.376;2024-01-06T05:23:14;94375.53;;;3.36;92.03
56374;BME280;58212;47.034;7.376;2024-01-06T05:25:41;94366.50;;;3.32;91.63
56374;BME280;58212;47.034;7.376;2024-01-06T05:28:08;94368.91;;;3.33;91.61
56374;BME280;58212;47.034;7.376;2024-01-06T05:30:36;94371.53;;;3.33;91.78
56374;BME280;58212;47.034;7.376;2024-01-06T05:33:03;94369.50;;;3.35;91.41
56374;BME280;58212;47.034;7.376;2024-01-06T05:35:30;94368.91;;;3.33;91.24
56374;BME280;58212;47.034;7.376;2024-01-06T05:37:57;94366.88;;;3.35;91.65
56374;BME280;58212;47.034;7.376;2024-01-06T05:40:23;94373.34;;;3.33;91.55
56374;BME280;58212;47.034;7.376;2024-01-06T05:42:50;94375.72;;;3.34;91.18
56374;BME280;58212;47.034;7.376;2024-01-06T05:45:20;94377.94;;;3.37;91.34
56374;BME280;58212;47.034;7.376;2024-01-06T05:47:49;94390.41;;;3.35;91.10
56374;BME280;58212;47.034;7.376;2024-01-06T05:50:16;94388.84;;;3.28;91.22
56374;BME280;58212;47.034;7.376;2024-01-06T05:52:43;94393.50;;;3.26;91.48
56374;BME280;58212;47.034;7.376;2024-01-06T05:55:10;94388.06;;;3.27;91.44
56374;BME280;58212;47.034;7.376;2024-01-06T05:57:36;94394.31;;;3.26;91.96
56374;BME280;58212;47.034;7.376;2024-01-06T06:00:06;94401.53;;;3.24;91.68
56374;BME280;58212;47.034;7.376;2024-01-06T06:02:38;94403.78;;;3.21;91.46
56374;BME280;58212;47.034;7.376;2024-01-06T06:05:07;94413.63;;;3.25;92.02
56374;BME280;58212;47.034;7.376;2024-01-06T06:07:34;94408.38;;;3.25;91.92
56374;BME280;58212;47.034;7.376;2024-01-06T06:10:06;94415.22;;;3.26;91.42
56374;BME280;58212;47.034;7.376;2024-01-06T06:12:33;94415.41;;;3.25;91.41
56374;BME280;58212;47.034;7.376;2024-01-06T06:14:59;94419.41;;;3.27;91.78
56374;BME280;58212;47.034;7.376;2024-01-06T06:17:26;94413.81;;;3.24;91.49
56374;BME280;58212;47.034;7.376;2024-01-06T06:19:53;94419.66;;;3.19;91.21
56374;BME280;58212;47.034;7.376;2024-01-06T06:22:21;94421.50;;;3.19;92.08
56374;BME280;58212;47.034;7.376;2024-01-06T06:24:48;94417.06;;;3.19;91.80
56374;BME280;58212;47.034;7.376;2024-01-06T06:27:15;94415.50;;;3.12;91.89
56374;BME280;58212;47.034;7.376;2024-01-06T06:29:42;94423.09;;;3.20;91.62
56374;BME280;58212;47.034;7.376;2024-01-06T06:32:08;94424.50;;;3.22;91.65
56374;BME280;58212;47.034;7.376;2024-01-06T06:34:35;94417.66;;;3.21;91.47
56374;BME280;58212;47.034;7.376;2024-01-06T06:37:02;94420.28;;;3.21;91.46
56374;BME280;58212;47.034;7.376;2024-01-06T06:39:31;94425.13;;;3.18;91.34
56374;BME280;58212;47.034;7.376;2024-01-06T06:41:58;94425.53;;;3.15;91.44
56374;BME280;58212;47.034;7.376;2024-01-06T06:44:25;94432.16;;;3.17;91.70
56374;BME280;58212;47.034;7.376;2024-01-06T06:46:52;94435.16;;;3.21;91.67
56374;BME280;58212;47.034;7.376;2024-01-06T06:49:25;94438.03;;;3.06;91.64
56374;BME280;58212;47.034;7.376;2024-01-06T06:51:52;94435.63;;;3.11;91.93
56374;BME280;58212;47.034;7.376;2024-01-06T06:54:21;94428.59;;;3.12;91.89
56374;BME280;58212;47.034;7.376;2024-01-06T06:56:49;94433.38;;;3.15;91.72
56374;BME280;58212;47.034;7.376;2024-01-06T06:59:16;94429.53;;;3.17;91.33
56374;BME280;58212;47.034;7.376;2024-01-06T07:01:42;94431.78;;;3.14;90.96
56374;BME280;58212;47.034;7.376;2024-01-06T07:04:09;94437.00;;;3.14;91.53
56374;BME280;58212;47.034;7.376;2024-01-06T07:06:36;94435.56;;;3.18;91.38
56374;BME280;58212;47.034;7.376;2024-01-06T07:09:03;94439.19;;;3.17;91.05
56374;BME280;58212;47.034;7.376;2024-01-06T07:11:30;94445.66;;;3.14;90.92
56374;BME280;58212;47.034;7.376;2024-01-06T07:13:58;94439.03;;;3.05;90.60
56374;BME280;58212;47.034;7.376;2024-01-06T07:16:25;94441.25;;;3.08;91.32
56374;BME280;58212;47.034;7.376;2024-01-06T07:18:52;94442.13;;;2.95;91.17
56374;BME280;58212;47.034;7.376;2024-01-06T07:21:18;94447.31;;;3.02;91.44
56374;BME280;58212;47.034;7.376;2024-01-06T07:23:45;94432.25;;;3.04;91.29
56374;BME280;58212;47.034;7.376;2024-01-06T07:26:12;94437.09;;;3.01;90.58
56374;BME280;58212;47.034;7.376;2024-01-06T07:28:39;94437.47;;;3.04;90.99
56374;BME280;58212;47.034;7.376;2024-01-06T07:31:07;94438.66;;;3.08;90.36
56374;BME280;58212;47.034;7.376;2024-01-06T07:33:33;94444.69;;;3.02;90.64
56374;BME280;58212;47.034;7.376;2024-01-06T07:36:00;94441.88;;;3.04;90.11
56374;BME280;58212;47.034;7.376;2024-01-06T07:38:27;94451.75;;;2.95;90.67
56374;BME280;58212;47.034;7.376;2024-01-06T07:40:56;94457.00;;;2.95;90.66
56374;BME280;58212;47.034;7.376;2024-01-06T07:43:23;94455.00;;;2.90;90.87
56374;BME280;58212;47.034;7.376;2024-01-06T07:45:49;94457.41;;;2.92;91.02
56374;BME280;58212;47.034;7.376;2024-01-06T07:48:18;94462.03;;;2.97;90.64
56374;BME280;58212;47.034;7.376;2024-01-06T07:50:45;94457.38;;;2.99;91.12
56374;BME280;58212;47.034;7.376;2024-01-06T07:53:11;94469.63;;;2.98;90.93
56374;BME280;58212;47.034;7.376;2024-01-06T07:55:39;94471.25;;;2.99;90.89
56374;BME280;58212;47.034;7.376;2024-01-06T07:58:06;94475.47;;;3.00;91.02
56374;BME280;58212;47.034;7.376;2024-01-06T08:00:32;94470.41;;;3.05;90.58
56374;BME280;58212;47.034;7.376;2024-01-06T08:02:59;94481.28;;;3.02;90.54
56374;BME280;58212;47.034;7.376;2024-01-06T08:05:27;94484.09;;;3.07;90.35
56374;BME280;58212;47.034;7.376;2024-01-06T08:07:54;94482.88;;;3.03;90.76
56374;BME280;58212;47.034;7.376;2024-01-06T08:10:21;94489.50;;;3.06;90.34
56374;BME280;58212;47.034;7.376;2024-01-06T08:12:48;94488.91;;;3.04;90.47
56374;BME280;58212;47.034;7.376;2024-01-06T08:15:14;94489.31;;;3.07;90.33
56374;BME280;58212;47.034;7.376;2024-01-06T08:17:41;94489.31;;;3.07;90.62
56374;BME280;58212;47.034;7.376;2024-01-06T08:20:09;94492.09;;;3.12;90.21
56374;BME280;58212;47.034;7.376;2024-01-06T08:22:37;94492.72;;;3.08;90.37
56374;BME280;58212;47.034;7.376;2024-01-06T08:25:04;94493.53;;;3.08;90.38
56374;BME280;58212;47.034;7.376;2024-01-06T08:27:33;94495.91;;;3.10;90.77
56374;BME280;58212;47.034;7.376;2024-01-06T08:30:00;94499.91;;;3.19;90.33
56374;BME280;58212;47.034;7.376;2024-01-06T08:32:26;94499.09;;;3.18;90.49
56374;BME280;58212;47.034;7.376;2024-01-06T08:34:53;94503.72;;;3.23;90.53
56374;BME280;58212;47.034;7.376;2024-01-06T08:37:20;94505.09;;;3.25;90.28
56374;BME280;58212;47.034;7.376;2024-01-06T08:39:48;94503.50;;;3.24;90.47
56374;BME280;58212;47.034;7.376;2024-01-06T08:42:15;94500.69;;;3.26;90.48
56374;BME280;58212;47.034;7.376;2024-01-06T08:44:42;94511.72;;;3.28;90.52
56374;BME280;58212;47.034;7.376;2024-01-06T08:47:09;94515.94;;;3.29;90.33
56374;BME280;58212;47.034;7.376;2024-01-06T08:49:36;94511.72;;;3.28;90.63
56374;BME280;58212;47.034;7.376;2024-01-06T08:52:03;94513.09;;;3.30;90.48
56374;BME280;58212;47.034;7.376;2024-01-06T08:54:31;94517.56;;;3.30;90.78
56374;BME280;58212;47.034;7.376;2024-01-06T08:56:59;94508.69;;;3.31;90.88
56374;BME280;58212;47.034;7.376;2024-01-06T08:59:26;94514.56;;;3.26;90.56
56374;BME280;58212;47.034;7.376;2024-01-06T09:01:52;94510.09;;;3.27;90.44
56374;BME280;58212;47.034;7.376;2024-01-06T09:04:19;94513.50;;;3.34;90.98
56374;BME280;58212;47.034;7.376;2024-01-06T09:06:46;94516.75;;;3.29;90.78
56374;BME280;58212;47.034;7.376;2024-01-06T09:09:13;94517.94;;;3.27;91.17
56374;BME280;58212;47.034;7.376;2024-01-06T09:11:40;94517.19;;;3.26;90.98
56374;BME280;58212;47.034;7.376;2024-01-06T09:14:09;94521.22;;;3.22;91.67
56374;BME280;58212;47.034;7.376;2024-01-06T09:16:36;94535.09;;;3.16;91.79
56374;BME280;58212;47.034;7.376;2024-01-06T09:19:03;94525.66;;;3.15;92.14
56374;BME280;58212;47.034;7.376;2024-01-06T09:21:29;94525.88;;;3.14;92.46
56374;BME280;58212;47.034;7.376;2024-01-06T09:23:56;94533.91;;;3.12;91.96
56374;BME280;58212;47.034;7.376;2024-01-06T09:26:23;94531.50;;;3.11;92.21
56374;BME280;58212;47.034;7.376;2024-01-06T09:28:50;94538.78;;;3.02;92.98
56374;BME280;58212;47.034;7.376;2024-01-06T09:31:18;94545.25;;;2.80;93.16
56374;BME280;58212;47.034;7.376;2024-01-06T09:33:45;94545.81;;;2.95;93.38
56374;BME280;58212;47.034;7.376;2024-01-06T09:36:12;94544.59;;;3.04;92.96
56374;BME280;58212;47.034;7.376;2024-01-06T09:38:39;94539.94;;;3.13;92.84
56374;BME280;58212;47.034;7.376;2024-01-06T09:41:06;94542.16;;;3.09;93.13
56374;BME280;58212;47.034;7.376;2024-01-06T09:43:32;94543.97;;;3.15;93.35
56374;BME280;58212;47.034;7.376;2024-01-06T09:46:05;94543.28;;;3.33;92.83
56374;BME280;58212;47.034;7.376;2024-01-06T09:48:39;94543.81;;;3.41;92.34
56374;BME280;58212;47.034;7.376;2024-01-06T09:51:10;94550.75;;;3.29;92.57
56374;BME280;58212;47.034;7.376;2024-01-06T09:53:43;94549.94;;;3.29;92.33
56374;BME280;58212;47.034;7.376;2024-01-06T09:56:15;94544.31;;;3.25;92.18
56374;BME280;58212;47.034;7.376;2024-01-06T09:58:42;94547.09;;;3.30;91.27
56374;BME280;58212;47.034;7.376;2024-01-06T10:01:10;94546.81;;;3.52;91.77
56374;BME280;58212;47.034;7.376;2024-01-06T10:03:38;94546.81;;;3.45;91.25
56374;BME280;58212;47.034;7.376;2024-01-06T10:06:06;94539.78;;;3.45;90.53
56374;BME280;58212;47.034;7.376;2024-01-06T10:08:35;94544.16;;;3.58;90.46
56374;BME280;58212;47.034;7.376;2024-01-06T10:11:02;94549.59;;;3.57;90.01
56374;BME280;58212;47.034;7.376;2024-01-06T10:13:28;94537.75;;;3.54;89.96
56374;BME280;58212;47.034;7.376;2024-01-06T10:15:55;94530.47;;;3.63;89.67
56374;BME280;58212;47.034;7.376;2024-01-06T10:18:22;94538.25;;;3.69;89.20
56374;BME280;58212;47.034;7.376;2024-01-06T10:20:52;94535.78;;;3.74;89.01
56374;BME280;58212;47.034;7.376;2024-01-06T10:23:22;94530.38;;;3.76;88.53
56374;BME280;58212;47.034;7.376;2024-01-06T10:25:51;94532.56;;;3.79;88.83
56374;BME280;58212;47.034;7.376;2024-01-06T10:28:18;94531.44;;;4.00;89.23
56374;BME280;58212;47.034;7.376;2024-01-06T10:30:45;94529.22;;;3.97;86.35
56374;BME280;58212;47.034;7.376;2024-01-06T10:33:12;94525.22;;;4.19;86.35
56374;BME280;58212;47.034;7.376;2024-01-06T10:35:39;94517.16;;;4.20;85.61
56374;BME280;58212;47.034;7.376;2024-01-06T10:38:08;94516.34;;;4.20;84.52
56374;BME280;58212;47.034;7.376;2024-01-06T10:40:34;94519.84;;;4.14;83.87
56374;BME280;58212;47.034;7.376;2024-01-06T10:43:01;94519.03;;;4.13;83.97
56374;BME280;58212;47.034;7.376;2024-01-06T10:45:30;94519.41;;;4.17;82.68
56374;BME280;58212;47.034;7.376;2024-01-06T10:47:57;94514.38;;;4.15;80.88
56374;BME280;58212;47.034;7.376;2024-01-06T10:50:27;94518.59;;;4.16;82.34
56374;BME280;58212;47.034;7.376;2024-01-06T10:52:56;94511.69;;;4.47;82.78
56374;BME280;58212;47.034;7.376;2024-01-06T10:55:25;94518.28;;;4.31;81.41
56374;BME280;58212;47.034;7.376;2024-01-06T10:57:54;94513.22;;;4.36;82.08
56374;BME280;58212;47.034;7.376;2024-01-06T11:00:21;94517.78;;;4.40;82.04
56374;BME280;58212;47.034;7.376;2024-01-06T11:02:48;94516.31;;;4.26;81.47
56374;BME280;58212;47.034;7.376;2024-01-06T11:05:18;94521.06;;;4.36;81.23
56374;BME280;58212;47.034;7.376;2024-01-06T11:07:46;94511.59;;;4.35;80.72
56374;BME280;58212;47.034;7.376;2024-01-06T11:10:18;94512.41;;;4.35;81.13
56374;BME280;58212;47.034;7.376;2024-01-06T11:13:05;94513.09;;;4.49;80.75
56374;BME280;58212;47.034;7.376;2024-01-06T11:15:43;94502.03;;;4.47;80.67
56374;BME280;58212;47.034;7.376;2024-01-06T11:18:30;94511.97;;;4.38;79.26
56374;BME280;58212;47.034;7.376;2024-01-06T11:21:19;94506.84;;;4.50;79.85
56374;BME280;58212;47.034;7.376;2024-01-06T11:24:14;94507.47;;;4.46;78.03
56374;BME280;58212;47.034;7.376;2024-01-06T11:26:43;94502.56;;;4.31;78.32
56374;BME280;58212;47.034;7.376;2024-01-06T11:29:12;94498.59;;;4.47;77.82
56374;BME280;58212;47.034;7.376;2024-01-06T11:31:39;94504.28;;;4.43;77.80
56374;BME280;58212;47.034;7.376;2024-01-06T11:34:16;94492.94;;;4.50;77.84
56374;BME280;58212;47.034;7.376;2024-01-06T11:36:44;94501.28;;;4.40;78.26
56374;BME280;58212;47.034;7.376;2024-01-06T11:39:33;94493.50;;;4.52;78.24
56374;BME280;58212;47.034;7.376;2024-01-06T11:42:00;94488.94;;;4.47;77.52
56374;BME280;58212;47.034;7.376;2024-01-06T11:44:29;94495.34;;;4.51;77.16
56374;BME280;58212;47.034;7.376;2024-01-06T11:46:56;94490.84;;;4.58;76.81
56374;BME280;58212;47.034;7.376;2024-01-06T11:49:26;94488.16;;;4.65;75.96
56374;BME280;58212;47.034;7.376;2024-01-06T11:51:54;94494.13;;;4.72;77.27
56374;BME280;58212;47.034;7.376;2024-01-06T11:54:21;94487.75;;;4.43;76.06
56374;BME280;58212;47.034;7.376;2024-01-06T11:56:48;94480.41;;;4.70;77.29
56374;BME280;58212;47.034;7.376;2024-01-06T11:59:15;94478.09;;;4.62;76.61
56374;BME280;58212;47.034;7.376;2024-01-06T12:01:43;94471.53;;;4.53;75.75
56374;BME280;58212;47.034;7.376;2024-01-06T12:04:13;94472.69;;;4.38;75.43
56374;BME280;58212;47.034;7.376;2024-01-06T12:06:40;94472.91;;;4.55;75.40
56374;BME280;58212;47.034;7.376;2024-01-06T12:09:08;94473.06;;;4.42;74.01
56374;BME280;58212;47.034;7.376;2024-01-06T12:11:35;94473.22;;;4.47;75.16
56374;BME280;58212;47.034;7.376;2024-01-06T12:14:03;94470.63;;;4.65;75.21
56374;BME280;58212;47.034;7.376;2024-01-06T12:16:30;94475.53;;;4.73;74.37
56374;BME280;58212;47.034;7.376;2024-01-06T12:18:59;94469.22;;;4.63;74.65
56374;BME280;58212;47.034;7.376;2024-01-06T12:21:27;94472.41;;;4.47;74.49
56374;BME280;58212;47.034;7.376;2024-01-06T12:23:54;94477.50;;;4.60;74.98
56374;BME280;58212;47.034;7.376;2024-01-06T12:26:40;94468.28;;;4.75;75.63
56374;BME280;58212;47.034;7.376;2024-01-06T12:29:07;94469.56;;;4.66;74.66
56374;BME280;58212;47.034;7.376;2024-01-06T12:31:34;94469.44;;;4.43;73.03
56374;BME280;58212;47.034;7.376;2024-01-06T12:34:02;94469.94;;;4.52;73.48
56374;BME280;58212;47.034;7.376;2024-01-06T12:36:30;94462.44;;;4.73;73.55
56374;BME280;58212;47.034;7.376;2024-01-06T12:38:57;94464.78;;;4.63;72.82
56374;BME280;58212;47.034;7.376;2024-01-06T12:41:24;94467.47;;;4.75;73.90
56374;BME280;58212;47.034;7.376;2024-01-06T12:43:50;94459.69;;;4.86;74.32
56374;BME280;58212;47.034;7.376;2024-01-06T12:46:18;94457.88;;;4.69;73.13
56374;BME280;58212;47.034;7.376;2024-01-06T12:48:45;94458.88;;;4.68;75.61
56374;BME280;58212;47.034;7.376;2024-01-06T12:51:13;94456.25;;;4.68;75.04
56374;BME280;58212;47.034;7.376;2024-01-06T12:53:40;94460.19;;;4.59;75.30
56374;BME280;58212;47.034;7.376;2024-01-06T12:56:07;94456.19;;;4.56;75.26
56374;BME280;58212;47.034;7.376;2024-01-06T12:58:33;94465.00;;;4.62;76.37
56374;BME280;58212;47.034;7.376;2024-01-06T13:01:00;94461.31;;;4.69;76.81
56374;BME280;58212;47.034;7.376;2024-01-06T13:03:27;94455.97;;;4.76;76.48
56374;BME280;58212;47.034;7.376;2024-01-06T13:05:54;94453.00;;;4.54;75.78
56374;BME280;58212;47.034;7.376;2024-01-06T13:08:22;94458.81;;;4.56;75.92
56374;BME280;58212;47.034;7.376;2024-01-06T13:10:49;94453.19;;;4.53;76.48
56374;BME280;58212;47.034;7.376;2024-01-06T13:13:16;94447.03;;;4.65;76.08